createdAt,value
2023-04-27T00:00:07.093Z,99498.81
2023-04-27T00:01:15.387Z,99488.72
2023-04-27T00:02:17.669Z,99490.66
2023-04-27T00:03:20.181Z,99485.72
2023-04-27T00:04:22.888Z,99491.13
2023-04-27T00:05:25.612Z,99484.72
2023-04-27T00:06:28.329Z,99488.78
2023-04-27T00:07:30.910Z,99488.75
2023-04-27T00:08:33.993Z,99477.84
2023-04-27T00:09:36.441Z,99474.34
2023-04-27T00:10:38.603Z,99483.06
2023-04-27T00:11:40.890Z,99481.94
2023-04-27T00:12:43.047Z,99480.63
2023-04-27T00:13:45.426Z,99477.78
2023-04-27T00:14:47.645Z,99467.88
2023-04-27T00:15:49.800Z,99471.22
2023-04-27T00:16:52.021Z,99478.81
2023-04-27T00:17:54.642Z,99480.31
2023-04-27T00:18:56.837Z,99472.34
2023-04-27T00:20:00.447Z,99480.59
2023-04-27T00:21:02.591Z,99474.47
2023-04-27T00:22:04.756Z,99472.09
2023-04-27T00:23:07.161Z,99469.69
2023-04-27T00:24:09.365Z,99474.06
2023-04-27T00:25:11.842Z,99473.09
2023-04-27T00:26:14.144Z,99465.38
2023-04-27T00:27:19.516Z,99467.72
2023-04-27T00:28:21.709Z,99469.38
2023-04-27T00:29:23.929Z,99473.63
2023-04-27T00:30:26.084Z,99467.66
2023-04-27T00:31:29.057Z,99463.41
2023-04-27T00:32:31.888Z,99464.78
2023-04-27T00:33:34.079Z,99457.66
2023-04-27T00:34:37.215Z,99462.22
2023-04-27T00:35:39.333Z,99462.41
2023-04-27T00:36:41.550Z,99457.53
2023-04-27T00:37:43.835Z,99450.06
2023-04-27T00:38:46.128Z,99450.25
2023-04-27T00:39:48.539Z,99454.41
2023-04-27T00:40:50.740Z,99459.25
2023-04-27T00:41:52.986Z,99462.34
2023-04-27T00:42:55.953Z,99461.88
2023-04-27T00:43:58.169Z,99455.56
2023-04-27T00:45:02.099Z,99455.69
2023-04-27T00:46:04.396Z,99464.59
2023-04-27T00:47:06.722Z,99462.94
2023-04-27T00:48:10.977Z,99462.88
2023-04-27T00:49:13.478Z,99461.00
2023-04-27T00:50:16.908Z,99461.88
2023-04-27T00:51:19.899Z,99462.88
2023-04-27T00:52:22.151Z,99459.50
2023-04-27T00:53:24.409Z,99464.47
2023-04-27T00:54:26.843Z,99464.19
2023-04-27T00:55:29.018Z,99463.09
2023-04-27T00:56:31.785Z,99462.16
2023-04-27T00:57:34.140Z,99462.81
2023-04-27T00:58:36.466Z,99458.88
2023-04-27T00:59:38.702Z,99466.28
2023-04-27T01:00:41.550Z,99467.06
2023-04-27T01:01:44.475Z,99470.41
2023-04-27T01:02:49.245Z,99462.03
2023-04-27T01:03:53.311Z,99475.72
2023-04-27T01:04:55.844Z,99467.81
2023-04-27T01:06:01.358Z,99463.53
2023-04-27T01:07:04.278Z,99474.44
2023-04-27T01:08:07.222Z,99469.41
2023-04-27T01:09:11.030Z,99477.59
2023-04-27T01:10:13.374Z,99468.81
2023-04-27T01:11:17.378Z,99471.88
2023-04-27T01:12:19.566Z,99470.75
2023-04-27T01:13:22.135Z,99475.75
2023-04-27T01:14:24.313Z,99480.91
2023-04-27T01:15:26.869Z,99462.63
2023-04-27T01:16:29.103Z,99477.34
2023-04-27T01:17:31.386Z,99468.56
2023-04-27T01:18:33.682Z,99474.91
2023-04-27T01:19:36.056Z,99476.16
2023-04-27T01:20:38.493Z,99480.56
2023-04-27T01:21:40.780Z,99481.66
2023-04-27T01:22:42.901Z,99478.53
2023-04-27T01:23:45.035Z,99481.78
2023-04-27T01:24:47.497Z,99479.50
2023-04-27T01:25:49.619Z,99483.34
2023-04-27T01:26:53.884Z,99481.50
2023-04-27T01:27:56.086Z,99480.09
2023-04-27T01:28:58.309Z,99473.97
2023-04-27T01:30:03.366Z,99481.97
2023-04-27T01:31:06.343Z,99478.50
2023-04-27T01:32:08.540Z,99480.97
2023-04-27T01:33:11.308Z,99481.56
2023-04-27T01:34:13.481Z,99482.22
2023-04-27T01:35:15.896Z,99477.69
2023-04-27T01:36:18.041Z,99479.50
2023-04-27T01:37:20.162Z,99477.69
2023-04-27T01:38:24.112Z,99483.63
2023-04-27T01:39:26.803Z,99479.94
2023-04-27T01:40:29.238Z,99473.75
2023-04-27T01:41:31.356Z,99476.19
2023-04-27T01:42:33.536Z,99470.00
2023-04-27T01:43:39.173Z,99473.44
2023-04-27T01:44:41.389Z,99464.84
2023-04-27T01:45:44.839Z,99471.81
2023-04-27T01:46:47.147Z,99469.13
2023-04-27T01:47:52.811Z,99476.06
2023-04-27T01:48:55.946Z,99469.16
2023-04-27T01:49:58.254Z,99465.09
2023-04-27T01:51:00.566Z,99464.28
2023-04-27T01:52:02.984Z,99471.97
2023-04-27T01:53:05.142Z,99465.75
2023-04-27T01:54:07.360Z,99465.63
2023-04-27T01:55:09.789Z,99476.22
2023-04-27T01:56:12.915Z,99476.53
2023-04-27T01:57:15.141Z,99478.22
2023-04-27T01:58:17.348Z,99470.66
2023-04-27T01:59:19.766Z,99473.31
2023-04-27T02:02:08.547Z,99464.81
2023-04-27T02:03:12.664Z,99471.81
2023-04-27T02:04:15.313Z,99480.78
2023-04-27T02:05:17.816Z,99478.19
2023-04-27T02:06:21.625Z,99473.97
2023-04-27T02:07:23.809Z,99474.91
2023-04-27T02:08:26.101Z,99478.13
2023-04-27T02:09:28.263Z,99474.47
2023-04-27T02:10:30.559Z,99485.78
2023-04-27T02:11:33.247Z,99480.69
2023-04-27T02:12:35.488Z,99474.66
2023-04-27T02:13:38.982Z,99476.34
2023-04-27T02:14:41.295Z,99490.91
2023-04-27T02:15:43.527Z,99483.03
2023-04-27T02:16:45.792Z,99481.19
2023-04-27T02:17:47.982Z,99482.81
2023-04-27T02:18:50.265Z,99485.38
2023-04-27T02:19:52.516Z,99490.34
2023-04-27T02:20:54.821Z,99483.31
2023-04-27T02:21:57.225Z,99488.47
2023-04-27T02:22:59.376Z,99493.72
2023-04-27T02:24:02.110Z,99487.78
2023-04-27T02:25:04.536Z,99491.38
2023-04-27T02:26:06.937Z,99502.09
2023-04-27T02:27:10.492Z,99488.97
2023-04-27T02:28:13.944Z,99493.00
2023-04-27T02:29:16.929Z,99492.03
2023-04-27T02:30:19.567Z,99488.59
2023-04-27T02:31:22.578Z,99492.88
2023-04-27T02:32:24.810Z,99485.03
2023-04-27T02:33:27.136Z,99489.28
2023-04-27T02:34:29.265Z,99494.47
2023-04-27T02:35:33.128Z,99491.13
2023-04-27T02:36:35.844Z,99492.06
2023-04-27T02:37:38.076Z,99490.09
2023-04-27T02:38:40.255Z,99494.22
2023-04-27T02:39:42.406Z,99493.72
2023-04-27T02:40:44.604Z,99503.25
2023-04-27T02:41:46.814Z,99495.66
2023-04-27T02:42:51.831Z,99496.59
2023-04-27T02:43:54.002Z,99488.75
2023-04-27T02:44:56.354Z,99497.47
2023-04-27T02:46:05.132Z,99493.38
2023-04-27T02:47:07.462Z,99495.06
2023-04-27T02:48:09.801Z,99490.00
2023-04-27T02:49:12.663Z,99493.16
2023-04-27T02:50:15.048Z,99492.59
2023-04-27T02:51:17.332Z,99488.56
2023-04-27T02:52:19.659Z,99496.34
2023-04-27T02:53:21.778Z,99492.09
2023-04-27T02:54:24.046Z,99491.31
2023-04-27T02:55:27.468Z,99491.25
2023-04-27T02:56:29.728Z,99499.97
2023-04-27T02:57:32.005Z,99488.56
2023-04-27T02:58:34.289Z,99503.38
2023-04-27T02:59:36.584Z,99499.25
2023-04-27T03:00:40.834Z,99504.56
2023-04-27T03:01:43.146Z,99501.28
2023-04-27T03:02:46.092Z,99500.47
2023-04-27T03:03:48.710Z,99500.78
2023-04-27T03:04:55.306Z,99501.00
2023-04-27T03:05:57.487Z,99502.75
2023-04-27T03:06:59.893Z,99496.56
2023-04-27T03:08:02.065Z,99499.16
2023-04-27T03:09:05.307Z,99500.16
2023-04-27T03:10:08.053Z,99498.22
2023-04-27T03:11:10.379Z,99498.88
2023-04-27T03:12:12.651Z,99501.25
2023-04-27T03:13:15.618Z,99492.59
2023-04-27T03:14:19.324Z,99497.63
2023-04-27T03:15:21.512Z,99495.09
2023-04-27T03:16:23.835Z,99495.19
2023-04-27T03:17:26.239Z,99496.22
2023-04-27T03:18:28.462Z,99490.34
2023-04-27T03:19:30.698Z,99494.75
2023-04-27T03:20:33.124Z,99494.88
2023-04-27T03:21:35.976Z,99490.56
2023-04-27T03:22:38.193Z,99488.88
2023-04-27T03:23:40.572Z,99493.97
2023-04-27T03:24:43.063Z,99485.72
2023-04-27T03:25:45.277Z,99495.47
2023-04-27T03:26:47.428Z,99496.41
2023-04-27T03:27:49.689Z,99499.03
2023-04-27T03:28:51.837Z,99491.06
2023-04-27T03:29:54.055Z,99496.50
2023-04-27T03:30:56.820Z,99490.13
2023-04-27T03:31:59.136Z,99495.31
2023-04-27T03:33:01.509Z,99488.34
2023-04-27T03:34:05.297Z,99495.66
2023-04-27T03:35:08.084Z,99491.31
2023-04-27T03:36:11.161Z,99488.69
2023-04-27T03:37:17.258Z,99502.44
2023-04-27T03:38:19.611Z,99496.81
2023-04-27T03:39:21.899Z,99498.53
2023-04-27T03:40:24.244Z,99488.31
2023-04-27T03:41:26.435Z,99494.59
2023-04-27T03:42:29.403Z,99495.22
2023-04-27T03:43:31.573Z,99485.81
2023-04-27T03:44:36.189Z,99495.69
2023-04-27T03:45:38.559Z,99496.72
2023-04-27T03:46:40.912Z,99496.72
2023-04-27T03:47:43.154Z,99494.47
2023-04-27T03:48:47.062Z,99505.47
2023-04-27T03:49:49.697Z,99501.91
2023-04-27T03:50:51.915Z,99505.88
2023-04-27T03:51:54.069Z,99507.06
2023-04-27T03:52:56.358Z,99501.84
2023-04-27T03:53:58.857Z,99502.78
2023-04-27T03:55:01.080Z,99504.25
2023-04-27T03:56:04.108Z,99500.97
2023-04-27T03:57:06.421Z,99501.88
2023-04-27T03:58:10.238Z,99501.06
2023-04-27T03:59:14.385Z,99493.88
2023-04-27T04:00:24.573Z,99497.19
2023-04-27T04:01:28.943Z,99498.13
2023-04-27T04:02:31.600Z,99495.03
2023-04-27T04:03:34.604Z,99491.72
2023-04-27T04:04:37.183Z,99487.66
2023-04-27T04:05:39.534Z,99489.41
2023-04-27T04:06:41.790Z,99496.94
2023-04-27T04:07:44.195Z,99494.34
2023-04-27T04:08:47.650Z,99508.47
2023-04-27T04:09:50.033Z,99499.72
2023-04-27T04:10:52.236Z,99495.34
2023-04-27T04:11:54.400Z,99501.84
2023-04-27T04:12:56.709Z,99505.47
2023-04-27T04:13:58.998Z,99496.84
2023-04-27T04:15:01.397Z,99502.16
2023-04-27T04:16:05.993Z,99505.56
2023-04-27T04:17:10.852Z,99508.06
2023-04-27T04:18:13.078Z,99500.19
2023-04-27T04:19:15.483Z,99510.47
2023-04-27T04:20:18.192Z,99506.19
2023-04-27T04:21:20.615Z,99503.75
2023-04-27T04:22:23.585Z,99506.41
2023-04-27T04:23:25.930Z,99493.44
2023-04-27T04:24:28.592Z,99504.88
2023-04-27T04:25:32.014Z,99503.75
2023-04-27T04:26:34.312Z,99508.47
2023-04-27T04:27:37.549Z,99503.75
2023-04-27T04:28:39.929Z,99508.69
2023-04-27T04:29:42.201Z,99506.72
2023-04-27T04:30:44.356Z,99500.44
2023-04-27T04:31:46.597Z,99496.78
2023-04-27T04:32:48.921Z,99510.44
2023-04-27T04:33:53.641Z,99501.88
2023-04-27T04:34:56.886Z,99501.28
2023-04-27T04:35:59.643Z,99507.38
2023-04-27T04:37:01.996Z,99495.09
2023-04-27T04:38:05.927Z,99501.41
2023-04-27T04:39:08.196Z,99499.72
2023-04-27T04:40:10.976Z,99495.22
2023-04-27T04:41:14.391Z,99491.81
2023-04-27T04:42:16.686Z,99498.75
2023-04-27T04:43:19.505Z,99510.91
2023-04-27T04:44:22.968Z,99508.19
2023-04-27T04:45:25.242Z,99509.00
2023-04-27T04:46:27.576Z,99510.03
2023-04-27T04:47:31.711Z,99514.34
2023-04-27T04:48:34.555Z,99504.72
2023-04-27T04:49:36.808Z,99508.22
2023-04-27T04:50:39.352Z,99507.47
2023-04-27T04:51:45.362Z,99506.59
2023-04-27T04:52:47.988Z,99509.41
2023-04-27T04:53:50.706Z,99512.97
2023-04-27T04:54:53.512Z,99517.34
2023-04-27T04:55:56.840Z,99517.25
2023-04-27T04:57:00.793Z,99506.72
2023-04-27T04:58:03.111Z,99515.38
2023-04-27T04:59:05.497Z,99513.47
2023-04-27T05:00:14.673Z,99514.72
2023-04-27T05:01:16.868Z,99512.31
2023-04-27T05:02:19.161Z,99515.72
2023-04-27T05:03:21.815Z,99516.09
2023-04-27T05:04:24.367Z,99508.34
2023-04-27T05:05:26.705Z,99518.84
2023-04-27T05:06:29.315Z,99514.41
2023-04-27T05:07:31.546Z,99511.78
2023-04-27T05:08:33.754Z,99516.13
2023-04-27T05:09:35.893Z,99508.31
2023-04-27T05:10:38.104Z,99516.84
2023-04-27T05:11:40.267Z,99517.75
2023-04-27T05:12:44.354Z,99507.94
2023-04-27T05:13:46.494Z,99514.03
2023-04-27T05:14:48.704Z,99515.53
2023-04-27T05:15:51.854Z,99507.56
2023-04-27T05:16:54.132Z,99511.63
2023-04-27T05:17:56.405Z,99512.97
2023-04-27T05:18:58.635Z,99505.78
2023-04-27T05:20:00.885Z,99511.38
2023-04-27T05:21:03.158Z,99508.50
2023-04-27T05:22:05.332Z,99511.84
2023-04-27T05:23:07.783Z,99511.00
2023-04-27T05:24:09.966Z,99522.50
2023-04-27T05:25:12.178Z,99514.44
2023-04-27T05:26:18.226Z,99516.84
2023-04-27T05:27:20.561Z,99514.84
2023-04-27T05:28:22.773Z,99522.41
2023-04-27T05:29:24.921Z,99519.78
2023-04-27T05:30:27.110Z,99520.44
2023-04-27T05:31:29.290Z,99528.09
2023-04-27T05:32:33.640Z,99518.28
2023-04-27T05:33:35.997Z,99528.03
2023-04-27T05:34:38.302Z,99527.06
2023-04-27T05:35:40.591Z,99530.22
2023-04-27T05:36:42.776Z,99526.75
2023-04-27T05:37:44.973Z,99531.19
2023-04-27T05:38:47.267Z,99532.66
2023-04-27T05:39:49.418Z,99527.47
2023-04-27T05:40:56.083Z,99531.22
2023-04-27T05:41:58.779Z,99531.59
2023-04-27T05:43:05.574Z,99533.00
2023-04-27T05:44:08.001Z,99533.72
2023-04-27T05:45:10.763Z,99533.06
2023-04-27T05:46:16.359Z,99537.28
2023-04-27T05:47:18.524Z,99532.84
2023-04-27T05:48:21.071Z,99545.84
2023-04-27T05:49:23.386Z,99541.63
2023-04-27T05:50:25.730Z,99536.41
2023-04-27T05:51:28.712Z,99545.59
2023-04-27T05:52:31.326Z,99541.81
2023-04-27T05:53:34.432Z,99539.25
2023-04-27T05:54:36.657Z,99544.47
2023-04-27T05:55:39.278Z,99541.50
2023-04-27T05:56:41.439Z,99546.63
2023-04-27T05:57:43.632Z,99541.28
2023-04-27T05:58:45.994Z,99531.03
2023-04-27T05:59:48.122Z,99535.00
2023-04-27T06:00:50.773Z,99540.44
2023-04-27T06:01:52.939Z,99542.06
2023-04-27T06:02:55.378Z,99538.63
2023-04-27T06:04:01.344Z,99539.38
2023-04-27T06:05:04.083Z,99539.91
2023-04-27T06:06:06.457Z,99543.13
2023-04-27T06:07:10.283Z,99540.66
2023-04-27T06:08:12.766Z,99552.75
2023-04-27T06:09:15.119Z,99549.09
2023-04-27T06:10:17.932Z,99549.78
2023-04-27T06:11:20.141Z,99553.56
2023-04-27T06:12:22.377Z,99554.34
2023-04-27T06:13:24.530Z,99557.47
2023-04-27T06:14:26.704Z,99562.84
2023-04-27T06:15:29.212Z,99560.94
2023-04-27T06:16:31.583Z,99565.59
2023-04-27T06:17:36.104Z,99556.31
2023-04-27T06:18:38.248Z,99567.00
2023-04-27T06:19:40.591Z,99564.13
2023-04-27T06:20:42.992Z,99563.84
2023-04-27T06:21:45.308Z,99562.38
2023-04-27T06:22:47.533Z,99562.88
2023-04-27T06:23:49.663Z,99568.56
2023-04-27T06:24:51.828Z,99562.84
2023-04-27T06:25:54.021Z,99563.75
2023-04-27T06:26:56.879Z,99565.09
2023-04-27T06:27:59.119Z,99557.19
2023-04-27T06:29:03.531Z,99561.59
2023-04-27T06:30:06.333Z,99562.19
2023-04-27T06:31:08.812Z,99560.59
2023-04-27T06:32:11.169Z,99564.38
2023-04-27T06:33:13.524Z,99559.31
2023-04-27T06:34:15.839Z,99564.75
2023-04-27T06:35:18.492Z,99554.28
2023-04-27T06:36:21.059Z,99561.84
2023-04-27T06:37:23.166Z,99558.66
2023-04-27T06:38:25.279Z,99568.88
2023-04-27T06:39:27.720Z,99568.16
2023-04-27T06:40:29.922Z,99561.22
2023-04-27T06:41:33.721Z,99568.72
2023-04-27T06:42:36.304Z,99563.69
2023-04-27T06:43:38.570Z,99561.91
2023-04-27T06:44:41.876Z,99567.56
2023-04-27T06:45:44.128Z,99568.94
2023-04-27T06:46:46.252Z,99569.09
2023-04-27T06:47:48.451Z,99570.03
2023-04-27T06:48:52.532Z,99569.56
2023-04-27T06:49:54.708Z,99568.09
2023-04-27T06:50:57.020Z,99581.03
2023-04-27T06:51:59.978Z,99568.84
2023-04-27T06:53:02.209Z,99571.56
2023-04-27T06:54:04.527Z,99576.94
2023-04-27T06:55:07.023Z,99573.97
2023-04-27T06:56:11.991Z,99576.00
2023-04-27T06:57:14.273Z,99572.81
2023-04-27T06:58:16.491Z,99573.25
2023-04-27T06:59:18.672Z,99564.66
2023-04-27T07:00:21.446Z,99566.78
2023-04-27T07:01:23.643Z,99567.56
2023-04-27T07:02:25.905Z,99561.66
2023-04-27T07:03:28.178Z,99568.19
2023-04-27T07:04:30.852Z,99565.63
2023-04-27T07:05:34.094Z,99570.09
2023-04-27T07:06:36.288Z,99565.97
2023-04-27T07:07:38.429Z,99561.16
2023-04-27T07:08:40.884Z,99564.13
2023-04-27T07:09:43.205Z,99552.44
2023-04-27T07:10:45.626Z,99564.34
2023-04-27T07:11:47.780Z,99557.47
2023-04-27T07:12:49.974Z,99563.06
2023-04-27T07:13:52.249Z,99563.25
2023-04-27T07:14:54.531Z,99566.78
2023-04-27T07:16:00.847Z,99571.19
2023-04-27T07:17:03.070Z,99575.41
2023-04-27T07:18:05.403Z,99559.88
2023-04-27T07:19:07.546Z,99567.81
2023-04-27T07:20:10.055Z,99567.63
2023-04-27T07:21:12.237Z,99568.09
2023-04-27T07:22:15.915Z,99563.38
2023-04-27T07:23:18.235Z,99564.84
2023-04-27T07:24:21.043Z,99570.09
2023-04-27T07:25:23.217Z,99568.84
2023-04-27T07:26:25.403Z,99566.13
2023-04-27T07:27:27.598Z,99564.41
2023-04-27T07:28:30.013Z,99558.69
2023-04-27T07:29:32.607Z,99558.25
2023-04-27T07:30:36.890Z,99566.09
2023-04-27T07:31:39.174Z,99556.63
2023-04-27T07:32:42.055Z,99560.94
2023-04-27T07:33:44.435Z,99556.72
2023-04-27T07:34:53.649Z,99554.91
2023-04-27T07:35:56.787Z,99555.88
2023-04-27T07:36:59.011Z,99552.19
2023-04-27T07:38:04.160Z,99551.75
2023-04-27T07:39:06.303Z,99552.41
2023-04-27T07:40:14.556Z,99558.97
2023-04-27T07:41:16.839Z,99552.47
2023-04-27T07:42:19.889Z,99554.19
2023-04-27T07:43:23.669Z,99556.22
2023-04-27T07:44:25.861Z,99553.13
2023-04-27T07:45:32.310Z,99556.19
2023-04-27T07:46:34.552Z,99554.03
2023-04-27T07:47:37.113Z,99549.66
2023-04-27T07:48:39.266Z,99563.16
2023-04-27T07:49:41.487Z,99557.16
2023-04-27T07:50:43.806Z,99560.47
2023-04-27T07:51:46.153Z,99558.09
2023-04-27T07:52:48.309Z,99552.94
2023-04-27T07:53:50.979Z,99547.06
2023-04-27T07:54:53.165Z,99548.75
2023-04-27T07:55:55.428Z,99544.41
2023-04-27T07:56:57.701Z,99550.59
2023-04-27T07:58:00.099Z,99540.38
2023-04-27T07:59:02.373Z,99553.50
2023-04-27T08:00:08.640Z,99546.44
2023-04-27T08:01:15.000Z,99548.56
2023-04-27T08:02:20.008Z,99552.13
2023-04-27T08:03:22.917Z,99548.44
2023-04-27T08:04:25.696Z,99538.22
2023-04-27T08:05:28.454Z,99541.25
2023-04-27T08:06:31.283Z,99539.09
2023-04-27T08:07:37.168Z,99539.63
2023-04-27T08:08:43.395Z,99537.22
2023-04-27T08:09:45.634Z,99535.38
2023-04-27T08:10:47.826Z,99539.09
2023-04-27T08:11:50.344Z,99539.41
2023-04-27T08:12:52.890Z,99537.94
2023-04-27T08:13:55.166Z,99541.72
2023-04-27T08:14:57.435Z,99536.84
2023-04-27T08:15:59.686Z,99536.59
2023-04-27T08:17:01.865Z,99533.16
2023-04-27T08:18:04.091Z,99535.47
2023-04-27T08:19:06.328Z,99539.25
2023-04-27T08:20:11.359Z,99543.72
2023-04-27T08:21:13.565Z,99538.13
2023-04-27T08:22:15.740Z,99542.56
2023-04-27T08:23:17.899Z,99532.50
2023-04-27T08:24:21.120Z,99526.78
2023-04-27T08:25:23.416Z,99529.00
2023-04-27T08:26:26.460Z,99527.69
2023-04-27T08:27:28.641Z,99531.13
2023-04-27T08:28:30.841Z,99527.84
2023-04-27T08:29:33.384Z,99526.41
2023-04-27T08:30:36.082Z,99527.03
2023-04-27T08:31:38.411Z,99530.06
2023-04-27T08:32:40.838Z,99539.00
2023-04-27T08:33:43.003Z,99541.72
2023-04-27T08:34:46.383Z,99539.50
2023-04-27T08:35:48.623Z,99534.72
2023-04-27T08:36:50.911Z,99533.50
2023-04-27T08:37:54.207Z,99530.25
2023-04-27T08:38:56.445Z,99530.25
2023-04-27T08:39:59.704Z,99526.38
2023-04-27T08:41:14.171Z,99527.28
2023-04-27T08:42:22.909Z,99519.31
2023-04-27T08:43:25.975Z,99524.13
2023-04-27T08:44:28.198Z,99519.41
2023-04-27T08:45:30.486Z,99518.47
2023-04-27T08:46:32.903Z,99522.00
2023-04-27T08:47:42.691Z,99516.81
2023-04-27T08:48:46.500Z,99515.47
2023-04-27T08:49:48.683Z,99512.81
2023-04-27T08:50:51.792Z,99513.19
2023-04-27T08:51:54.036Z,99511.19
2023-04-27T08:52:56.280Z,99509.41
2023-04-27T08:53:58.884Z,99518.75
2023-04-27T08:55:01.118Z,99510.19
2023-04-27T08:56:04.823Z,99514.91
2023-04-27T08:57:15.114Z,99505.88
2023-04-27T08:58:18.206Z,99520.69
2023-04-27T08:59:20.364Z,99524.75
2023-04-27T09:00:24.358Z,99518.28
2023-04-27T09:01:27.520Z,99515.59
2023-04-27T09:02:30.373Z,99519.75
2023-04-27T09:03:32.786Z,99525.28
2023-04-27T09:04:41.871Z,99517.25
2023-04-27T09:06:00.638Z,99522.91
2023-04-27T09:07:10.664Z,99531.19
2023-04-27T09:08:12.785Z,99531.91
2023-04-27T09:09:24.973Z,99525.53
2023-04-27T09:10:29.356Z,99528.16
2023-04-27T09:11:34.934Z,99518.91
2023-04-27T09:12:37.133Z,99523.59
2023-04-27T09:13:42.059Z,99530.28
2023-04-27T09:14:56.168Z,99531.81
2023-04-27T09:15:58.349Z,99533.06
2023-04-27T09:17:00.549Z,99528.94
2023-04-27T09:18:02.814Z,99531.59
2023-04-27T09:19:05.083Z,99518.28
2023-04-27T09:20:10.186Z,99524.97
2023-04-27T09:21:22.736Z,99523.75
2023-04-27T09:22:24.888Z,99523.44
2023-04-27T09:23:34.827Z,99527.72
2023-04-27T09:24:37.738Z,99531.56
2023-04-27T09:25:39.982Z,99526.84
2023-04-27T09:26:49.752Z,99533.84
2023-04-27T09:27:51.976Z,99531.69
2023-04-27T09:28:58.711Z,99539.13
2023-04-27T09:30:00.836Z,99534.34
2023-04-27T09:31:04.489Z,99538.00
2023-04-27T09:32:20.765Z,99526.44
2023-04-27T09:33:28.345Z,99527.63
2023-04-27T09:34:41.070Z,99519.69
2023-04-27T09:35:45.675Z,99523.31
2023-04-27T09:36:48.808Z,99519.66
2023-04-27T09:37:54.674Z,99528.19
2023-04-27T09:38:57.755Z,99523.66
2023-04-27T09:40:02.353Z,99524.94
2023-04-27T09:41:04.598Z,99516.88
2023-04-27T09:42:07.114Z,99518.22
2023-04-27T09:43:10.543Z,99514.38
2023-04-27T09:44:14.294Z,99513.78
2023-04-27T09:45:17.515Z,99521.91
2023-04-27T09:46:20.059Z,99513.91
2023-04-27T09:47:22.453Z,99513.78
2023-04-27T09:48:26.472Z,99505.16
2023-04-27T09:49:29.308Z,99502.25
2023-04-27T09:50:41.374Z,99515.19
2023-04-27T09:51:43.633Z,99514.88
2023-04-27T09:52:46.727Z,99518.25
2023-04-27T09:53:56.483Z,99510.22
2023-04-27T09:55:00.236Z,99516.06
2023-04-27T09:56:30.636Z,99508.66
2023-04-27T09:57:58.901Z,99510.34
2023-04-27T09:59:41.592Z,99519.88
2023-04-27T10:01:10.905Z,99515.97
2023-04-27T10:02:24.724Z,99516.41
2023-04-27T10:03:41.345Z,99516.56
2023-04-27T10:04:52.372Z,99516.00
2023-04-27T10:06:35.583Z,99507.19
2023-04-27T10:07:40.340Z,99508.03
2023-04-27T10:08:43.149Z,99512.06
2023-04-27T10:09:47.648Z,99505.63
2023-04-27T10:10:50.302Z,99502.66
2023-04-27T10:11:54.403Z,99508.53
2023-04-27T10:13:00.773Z,99508.66
2023-04-27T10:14:08.114Z,99506.25
2023-04-27T10:15:14.729Z,99504.31
2023-04-27T10:16:18.848Z,99501.78
2023-04-27T10:17:32.715Z,99501.63
2023-04-27T10:18:34.973Z,99505.25
2023-04-27T10:19:37.258Z,99508.31
2023-04-27T10:20:40.572Z,99507.47
2023-04-27T10:22:02.553Z,99504.78
2023-04-27T10:23:04.957Z,99504.03
2023-04-27T10:24:08.859Z,99506.41
2023-04-27T10:25:22.715Z,99511.19
2023-04-27T10:26:26.528Z,99509.84
2023-04-27T10:27:39.215Z,99506.81
2023-04-27T10:28:41.683Z,99503.69
2023-04-27T10:29:46.140Z,99499.84
2023-04-27T10:30:49.530Z,99504.50
2023-04-27T10:31:51.948Z,99500.53
2023-04-27T10:32:58.358Z,99499.81
2023-04-27T10:34:15.337Z,99491.94
2023-04-27T10:35:17.634Z,99509.50
2023-04-27T10:36:19.828Z,99508.50
2023-04-27T10:37:25.432Z,99506.03
2023-04-27T10:38:29.966Z,99509.50
2023-04-27T10:39:47.916Z,99502.16
2023-04-27T10:40:54.902Z,99504.84
2023-04-27T10:41:57.150Z,99501.50
2023-04-27T10:43:11.704Z,99503.16
2023-04-27T10:44:20.515Z,99493.00
2023-04-27T10:45:31.125Z,99509.03
2023-04-27T10:46:36.100Z,99504.00
2023-04-27T10:47:43.480Z,99497.38
2023-04-27T10:48:45.903Z,99506.81
2023-04-27T10:49:48.122Z,99503.13
2023-04-27T10:50:53.502Z,99502.81
2023-04-27T10:51:58.744Z,99512.19
2023-04-27T10:53:06.180Z,99502.50
2023-04-27T10:54:08.789Z,99492.50
2023-04-27T10:55:18.437Z,99501.25
2023-04-27T10:56:20.639Z,99496.16
2023-04-27T10:57:23.041Z,99500.38
2023-04-27T10:58:31.944Z,99496.84
2023-04-27T10:59:55.439Z,99497.03
2023-04-27T11:00:57.758Z,99496.97
2023-04-27T11:01:59.986Z,99491.91
2023-04-27T11:03:11.831Z,99489.72
2023-04-27T11:04:14.447Z,99499.16
2023-04-27T11:05:22.403Z,99487.19
2023-04-27T11:06:25.114Z,99487.06
2023-04-27T11:07:29.063Z,99491.06
2023-04-27T11:08:32.774Z,99493.88
2023-04-27T11:09:39.531Z,99499.47
2023-04-27T11:10:47.325Z,99489.91
2023-04-27T11:11:50.379Z,99492.25
2023-04-27T11:12:52.495Z,99491.47
2023-04-27T11:13:55.710Z,99491.97
2023-04-27T11:14:58.641Z,99484.94
2023-04-27T11:16:01.271Z,99470.81
2023-04-27T11:17:05.053Z,99484.66
2023-04-27T11:18:07.416Z,99480.91
2023-04-27T11:19:09.688Z,99478.38
2023-04-27T11:20:11.961Z,99485.63
2023-04-27T11:21:16.138Z,99481.59
2023-04-27T11:22:18.375Z,99486.56
2023-04-27T11:23:28.967Z,99487.34
2023-04-27T11:24:31.257Z,99482.31
2023-04-27T11:25:33.422Z,99497.38
2023-04-27T11:26:35.625Z,99487.56
2023-04-27T11:27:39.693Z,99499.00
2023-04-27T11:28:43.347Z,99494.13
2023-04-27T11:29:45.565Z,99493.66
2023-04-27T11:30:55.305Z,99495.59
2023-04-27T11:31:57.730Z,99488.53
2023-04-27T11:33:08.603Z,99481.50
2023-04-27T11:34:16.431Z,99485.84
2023-04-27T11:35:18.637Z,99486.91
2023-04-27T11:36:22.948Z,99488.91
2023-04-27T11:37:27.920Z,99481.75
2023-04-27T11:38:34.021Z,99479.94
2023-04-27T11:39:38.671Z,99482.84
2023-04-27T11:40:42.624Z,99481.25
2023-04-27T11:41:46.399Z,99476.81
2023-04-27T11:42:58.059Z,99483.94
2023-04-27T11:44:07.929Z,99478.47
2023-04-27T11:45:12.204Z,99476.69
2023-04-27T11:46:14.647Z,99481.91
2023-04-27T11:47:19.217Z,99479.16
2023-04-27T11:48:23.671Z,99479.03
2023-04-27T11:49:25.954Z,99474.41
2023-04-27T11:50:28.234Z,99474.38
2023-04-27T11:51:34.575Z,99472.69
2023-04-27T11:52:39.856Z,99467.22
2023-04-27T11:53:42.845Z,99467.44
2023-04-27T11:54:53.077Z,99466.97
2023-04-27T11:55:55.236Z,99464.50
2023-04-27T11:57:06.981Z,99463.41
2023-04-27T11:58:17.984Z,99461.97
2023-04-27T11:59:22.906Z,99456.13
2023-04-27T12:00:25.396Z,99461.25
2023-04-27T12:01:37.750Z,99453.78
2023-04-27T12:02:42.314Z,99449.06
2023-04-27T12:03:44.734Z,99456.59
2023-04-27T12:04:48.530Z,99456.72
2023-04-27T12:05:52.188Z,99454.47
2023-04-27T12:06:54.464Z,99456.03
2023-04-27T12:07:57.064Z,99455.22
2023-04-27T12:08:59.279Z,99447.78
2023-04-27T12:10:01.631Z,99441.13
2023-04-27T12:11:04.368Z,99448.28
2023-04-27T12:12:07.499Z,99442.88
2023-04-27T12:13:09.756Z,99448.22
2023-04-27T12:14:12.005Z,99443.19
2023-04-27T12:15:14.226Z,99444.56
2023-04-27T12:16:16.508Z,99454.22
2023-04-27T12:17:19.333Z,99448.16
2023-04-27T12:18:21.768Z,99447.94
2023-04-27T12:19:27.135Z,99447.66
2023-04-27T12:20:29.365Z,99445.44
2023-04-27T12:21:32.239Z,99439.94
2023-04-27T12:22:34.444Z,99447.78
2023-04-27T12:23:37.028Z,99442.88
2023-04-27T12:24:39.211Z,99448.25
2023-04-27T12:25:41.486Z,99432.63
2023-04-27T12:26:43.720Z,99437.84
2023-04-27T12:27:47.970Z,99439.63
2023-04-27T12:28:50.174Z,99439.72
2023-04-27T12:29:54.255Z,99434.75